Time;durP1;ratioP1;P1;durP2;ratioP2;P2;SDS_P1;SDS_P2;PMS_P1;PMS_P2;Temp;Humidity;BMP_temperature;BMP_pressure;BME280_temperature;BME280_humidity;BME280_pressure;Samples;Min_cycle;Max_cycle;Signal;HPM_P1;HPM_P2
2021/06/16 00:00:53;;;;;;;11.77;2.58;;;23.60;44.10;;;;;;5092907;28;20031;-65
2021/06/16 00:03:18;;;;;;;3.67;2.70;;;23.60;44.40;;;;;;5093094;28;20039;-65
2021/06/16 00:05:44;;;;;;;4.40;2.75;;;23.50;44.60;;;;;;5091471;28;20036;-66
2021/06/16 00:08:11;;;;;;;7.95;2.88;;;23.50;44.40;;;;;;5092828;28;20103;-66
2021/06/16 00:10:37;;;;;;;6.63;2.72;;;23.50;44.70;;;;;;5092852;28;20028;-65
2021/06/16 00:13:03;;;;;;;3.97;2.67;;;23.50;44.90;;;;;;5106307;28;20111;-65
2021/06/16 00:15:33;;;;;;;4.30;2.50;;;23.50;45.00;;;;;;5091442;28;20456;-65
2021/06/16 00:17:59;;;;;;;4.50;2.92;;;23.50;45.10;;;;;;5102875;28;20038;-65
2021/06/16 00:20:25;;;;;;;5.32;2.30;;;23.50;44.90;;;;;;5110332;28;20023;-65
2021/06/16 00:22:52;;;;;;;6.85;2.63;;;23.50;44.80;;;;;;5107578;28;20020;-65
2021/06/16 00:25:18;;;;;;;8.52;3.45;;;23.50;45.40;;;;;;5092415;28;20043;-65
2021/06/16 00:27:44;;;;;;;7.47;2.70;;;23.50;46.30;;;;;;5098722;28;20082;-65
2021/06/16 00:30:10;;;;;;;9.80;2.70;;;23.50;46.10;;;;;;5111991;28;20119;-65
2021/06/16 00:32:37;;;;;;;4.50;2.47;;;23.40;45.90;;;;;;5106002;28;20066;-65
2021/06/16 00:35:04;;;;;;;3.75;2.45;;;23.40;45.70;;;;;;5108162;28;20051;-65
2021/06/16 00:37:30;;;;;;;3.38;2.55;;;23.40;45.70;;;;;;5112626;28;20501;-65
2021/06/16 00:39:56;;;;;;;7.75;3.25;;;23.40;45.50;;;;;;5112373;28;20043;-65
2021/06/16 00:42:23;;;;;;;5.45;2.80;;;23.30;45.90;;;;;;5109768;28;20020;-65
2021/06/16 00:44:49;;;;;;;4.43;3.05;;;23.30;45.90;;;;;;5102145;28;20032;-65
2021/06/16 00:47:15;;;;;;;3.70;2.47;;;23.20;45.80;;;;;;5093913;28;20034;-65
2021/06/16 00:49:40;;;;;;;4.88;2.80;;;23.20;45.80;;;;;;5112554;28;20018;-65
2021/06/16 00:52:06;;;;;;;4.35;2.33;;;23.10;45.80;;;;;;5112270;28;20505;-65
2021/06/16 00:54:34;;;;;;;3.88;2.33;;;23.10;45.70;;;;;;5112399;28;20068;-65
2021/06/16 00:57:01;;;;;;;3.53;2.47;;;23.00;45.80;;;;;;5103281;28;20035;-65
2021/06/16 00:59:32;;;;;;;5.47;2.88;;;22.90;45.60;;;;;;5092056;28;20039;-65
2021/06/16 01:01:59;;;;;;;4.07;2.60;;;22.90;45.80;;;;;;5093399;28;20012;-65
2021/06/16 01:04:28;;;;;;;4.40;2.20;;;22.80;46.00;;;;;;5093906;28;20386;-65
2021/06/16 01:07:15;;;;;;;3.35;2.35;;;22.80;45.90;;;;;;5108698;28;20031;-65
2021/06/16 01:09:57;;;;;;;2.90;2.13;;;22.70;45.90;;;;;;5091938;28;20436;-65
2021/06/16 01:12:55;;;;;;;6.20;2.65;;;22.60;46.10;;;;;;5098652;28;20028;-65
2021/06/16 01:15:25;;;;;;;7.10;2.42;;;22.50;46.20;;;;;;5091725;28;20385;-65
2021/06/16 01:17:58;;;;;;;6.43;2.65;;;22.50;46.30;;;;;;5091793;28;20030;-65
2021/06/16 01:20:42;;;;;;;5.57;2.80;;;22.40;46.80;;;;;;5091701;28;20073;-65
2021/06/16 01:23:07;;;;;;;7.03;2.17;;;22.30;47.40;;;;;;5091600;28;20025;-65
2021/06/16 01:26:00;;;;;;;6.47;2.80;;;22.30;47.00;;;;;;5094869;28;20271;-65
2021/06/16 01:28:42;;;;;;;9.63;3.22;;;22.20;47.20;;;;;;5111979;28;20030;-65
2021/06/16 01:31:14;;;;;;;5.30;2.58;;;22.20;47.70;;;;;;5106234;28;20107;-65
2021/06/16 01:33:40;;;;;;;4.78;2.60;;;22.10;47.40;;;;;;5098457;28;20020;-65
2021/06/16 01:36:07;;;;;;;4.82;2.63;;;22.10;47.30;;;;;;5101270;28;20084;-65
2021/06/16 01:38:33;;;;;;;4.78;2.35;;;22.00;47.70;;;;;;5109512;28;20059;-65
2021/06/16 01:41:01;;;;;;;2.80;2.25;;;22.00;47.70;;;;;;5110508;28;20519;-64
2021/06/16 01:43:29;;;;;;;3.97;2.70;;;21.90;47.90;;;;;;5111812;28;20042;-65
2021/06/16 01:45:58;;;;;;;6.55;2.90;;;21.90;48.10;;;;;;5111851;28;20031;-65
2021/06/16 01:48:25;;;;;;;8.40;2.45;;;21.80;48.50;;;;;;5111497;28;20020;-65
2021/06/16 01:50:53;;;;;;;3.63;2.67;;;21.80;48.40;;;;;;5109885;28;20048;-65
2021/06/16 01:53:20;;;;;;;6.20;2.90;;;21.70;48.80;;;;;;5113815;28;20027;-65
2021/06/16 01:55:51;;;;;;;3.10;2.60;;;21.70;48.80;;;;;;5114645;28;20393;-65
2021/06/16 01:58:19;;;;;;;4.50;2.53;;;21.70;48.90;;;;;;5115010;28;20035;-64
2021/06/16 02:00:46;;;;;;;4.55;2.95;;;21.70;48.80;;;;;;5103408;28;20036;-65
2021/06/16 02:03:12;;;;;;;3.78;2.78;;;21.60;48.80;;;;;;5100673;28;20094;-65
2021/06/16 02:05:38;;;;;;;4.32;2.72;;;21.60;49.10;;;;;;5115763;28;20103;-65
2021/06/16 02:08:13;;;;;;;4.85;2.60;;;21.50;48.90;;;;;;5115345;28;20054;-65
2021/06/16 02:10:45;;;;;;;3.35;2.38;;;21.50;49.20;;;;;;5101953;28;20024;-65
2021/06/16 02:13:12;;;;;;;8.55;2.60;;;21.40;49.10;;;;;;5095066;28;20024;-65
2021/06/16 02:16:00;;;;;;;3.88;2.75;;;21.40;49.30;;;;;;5093507;28;20055;-65
2021/06/16 02:18:38;;;;;;;8.32;3.10;;;21.40;49.50;;;;;;5098998;28;20019;-65
2021/06/16 02:21:04;;;;;;;3.33;2.53;;;21.40;49.40;;;;;;5115303;28;20111;-65
2021/06/16 02:23:30;;;;;;;8.30;2.75;;;21.30;49.30;;;;;;5115167;28;20091;-65
2021/06/16 02:25:56;;;;;;;4.60;2.42;;;21.30;49.80;;;;;;5114744;28;20111;-65
2021/06/16 02:28:22;;;;;;;6.10;2.63;;;21.30;49.80;;;;;;5113272;28;20047;-65
2021/06/16 02:30:48;;;;;;;4.28;2.53;;;21.20;49.90;;;;;;5111449;28;20062;-65
2021/06/16 02:33:14;;;;;;;2.97;2.45;;;21.20;50.00;;;;;;5102258;28;20081;-65
2021/06/16 02:35:40;;;;;;;4.30;2.88;;;21.10;50.00;;;;;;5101393;28;20481;-65
2021/06/16 02:38:12;;;;;;;4.00;2.72;;;21.10;50.20;;;;;;5094372;28;20031;-65
2021/06/16 02:40:40;;;;;;;4.22;2.45;;;21.00;50.80;;;;;;5094610;28;20026;-65
2021/06/16 02:43:07;;;;;;;6.95;3.30;;;21.00;50.70;;;;;;5114899;28;20024;-65
2021/06/16 02:45:35;;;;;;;4.65;3.15;;;21.00;50.80;;;;;;5114939;28;20068;-65
2021/06/16 02:48:03;;;;;;;8.50;3.45;;;21.00;51.10;;;;;;5114783;28;20030;-65
2021/06/16 02:50:30;;;;;;;5.55;2.63;;;21.00;51.10;;;;;;5114691;28;20560;-65
2021/06/16 02:53:01;;;;;;;5.30;3.10;;;20.90;50.80;;;;;;5112010;27;20034;-65
2021/06/16 02:55:28;;;;;;;4.63;2.65;;;20.90;50.90;;;;;;5094267;28;20024;-65
2021/06/16 02:57:56;;;;;;;7.88;3.03;;;20.90;50.80;;;;;;5094023;28;20032;-65
2021/06/16 03:00:23;;;;;;;8.23;2.83;;;20.80;50.90;;;;;;5094275;28;20470;-65
2021/06/16 03:02:49;;;;;;;5.90;2.67;;;20.80;50.80;;;;;;5094351;28;20028;-65
2021/06/16 03:05:27;;;;;;;6.25;2.90;;;20.80;50.90;;;;;;5094508;28;20378;-64
2021/06/16 03:07:56;;;;;;;5.82;2.70;;;20.80;51.00;;;;;;5114528;28;20046;-64
2021/06/16 03:10:23;;;;;;;9.93;3.95;;;20.80;51.10;;;;;;5098619;28;20032;-64
2021/06/16 03:12:51;;;;;;;9.55;3.85;;;20.80;51.40;;;;;;5093944;28;20027;-64
2021/06/16 03:15:18;;;;;;;5.93;3.55;;;20.70;51.50;;;;;;5093925;28;20020;-65
2021/06/16 03:17:46;;;;;;;9.25;4.22;;;20.70;51.60;;;;;;5093470;28;20032;-64
2021/06/16 03:20:14;;;;;;;12.15;4.13;;;20.70;52.30;;;;;;5093704;28;20027;-65
2021/06/16 03:22:43;;;;;;;10.75;3.80;;;20.70;52.50;;;;;;5093732;28;20016;-65
2021/06/16 03:25:10;;;;;;;10.73;3.40;;;20.70;52.30;;;;;;5093541;28;20469;-65
2021/06/16 03:27:38;;;;;;;4.00;3.00;;;20.60;52.20;;;;;;5105538;28;20081;-64
2021/06/16 03:30:05;;;;;;;10.93;2.95;;;20.60;52.20;;;;;;5113988;28;20455;-64
2021/06/16 03:32:32;;;;;;;5.25;3.38;;;20.60;52.10;;;;;;5097039;28;20034;-65
2021/06/16 03:34:58;;;;;;;5.43;3.28;;;20.60;52.20;;;;;;5093446;28;20031;-65
2021/06/16 03:37:25;;;;;;;8.13;2.83;;;20.60;52.30;;;;;;5097219;28;20031;-65
2021/06/16 03:39:52;;;;;;;5.53;2.83;;;20.60;52.30;;;;;;5113798;28;20019;-64
2021/06/16 03:42:20;;;;;;;6.68;2.78;;;20.60;52.20;;;;;;5106825;28;20044;-65
2021/06/16 03:44:48;;;;;;;5.65;3.40;;;20.70;52.30;;;;;;5107774;28;20354;-64
2021/06/16 03:47:18;;;;;;;11.15;4.13;;;20.60;52.70;;;;;;5113646;27;20477;-65
2021/06/16 03:49:46;;;;;;;8.98;3.95;;;20.60;53.20;;;;;;5113457;28;20023;-65
2021/06/16 03:52:12;;;;;;;8.00;3.33;;;20.70;53.30;;;;;;5099387;28;20040;-65
2021/06/16 03:54:39;;;;;;;7.75;3.78;;;20.70;53.20;;;;;;5093109;28;20036;-65
2021/06/16 03:57:07;;;;;;;7.35;2.92;;;20.70;53.30;;;;;;5104370;28;20081;-64
2021/06/16 03:59:35;;;;;;;5.78;3.17;;;20.70;53.30;;;;;;5113772;28;20369;-65
2021/06/16 04:02:01;;;;;;;10.10;3.38;;;20.70;53.20;;;;;;5113347;28;20020;-64
2021/06/16 04:04:28;;;;;;;6.63;3.47;;;20.80;53.20;;;;;;5094848;28;20112;-65
2021/06/16 04:06:55;;;;;;;7.90;3.22;;;20.80;53.00;;;;;;5092777;28;20024;-65
2021/06/16 04:09:22;;;;;;;8.48;3.45;;;20.80;53.10;;;;;;5099702;28;20180;-65
2021/06/16 04:11:47;;;;;;;6.50;2.70;;;20.80;53.30;;;;;;5092781;28;20036;-65
2021/06/16 04:14:14;;;;;;;4.40;3.03;;;20.90;53.20;;;;;;5092872;28;20024;-64
2021/06/16 04:16:43;;;;;;;6.60;3.55;;;20.90;53.20;;;;;;5092533;28;20042;-64
2021/06/16 04:19:09;;;;;;;5.57;3.30;;;20.90;53.20;;;;;;5092622;28;20025;-65
2021/06/16 04:21:35;;;;;;;4.38;2.63;;;21.00;53.00;;;;;;5099152;28;20556;-65
2021/06/16 04:24:01;;;;;;;9.93;3.42;;;21.00;53.20;;;;;;5113021;28;20427;-65
2021/06/16 04:26:26;;;;;;;8.63;3.25;;;21.00;53.30;;;;;;5112787;27;20019;-64
2021/06/16 04:28:52;;;;;;;9.45;3.72;;;21.10;53.40;;;;;;5113123;28;20015;-64
2021/06/16 04:31:18;;;;;;;6.95;3.22;;;21.10;53.10;;;;;;5108075;28;20016;-65
2021/06/16 04:33:45;;;;;;;11.82;3.75;;;21.10;52.90;;;;;;5091210;28;20036;-64
2021/06/16 04:36:11;;;;;;;5.88;3.10;;;21.20;52.80;;;;;;5092169;28;20055;-65
2021/06/16 04:38:37;;;;;;;5.22;2.92;;;21.20;52.60;;;;;;5092378;28;20110;-65
2021/06/16 04:41:04;;;;;;;5.80;3.58;;;21.30;52.40;;;;;;5092268;28;20073;-65
2021/06/16 04:43:30;;;;;;;9.98;3.70;;;21.30;52.60;;;;;;5092076;28;20094;-64
2021/06/16 04:45:56;;;;;;;6.82;3.63;;;21.40;52.40;;;;;;5092129;28;20103;-65
2021/06/16 04:48:21;;;;;;;13.90;4.05;;;21.50;52.40;;;;;;5091864;28;20112;-65
2021/06/16 04:50:47;;;;;;;10.27;3.90;;;21.50;52.40;;;;;;5097476;28;20493;-65
2021/06/16 04:53:13;;;;;;;8.20;3.85;;;21.50;52.20;;;;;;5112314;28;20031;-65
2021/06/16 04:55:39;;;;;;;22.85;4.05;;;21.60;51.90;;;;;;5105087;28;20394;-65
2021/06/16 04:58:05;;;;;;;24.33;5.82;;;21.70;51.80;;;;;;5091607;28;20121;-65
2021/06/16 05:00:31;;;;;;;15.88;5.57;;;21.70;51.80;;;;;;5104117;28;21335;-65
2021/06/16 05:03:01;;;;;;;11.63;4.65;;;21.80;51.80;;;;;;5102704;28;20035;-65
2021/06/16 05:05:27;;;;;;;11.02;4.07;;;21.80;51.90;;;;;;5093944;28;20107;-65
2021/06/16 05:07:53;;;;;;;8.25;3.80;;;21.90;51.70;;;;;;5100194;28;20038;-65
2021/06/16 05:10:19;;;;;;;8.55;3.97;;;21.90;51.60;;;;;;5100317;28;20373;-65
2021/06/16 05:12:45;;;;;;;8.90;3.85;;;22.00;51.40;;;;;;5092827;28;20107;-65
2021/06/16 05:15:12;;;;;;;10.18;3.20;;;22.00;51.30;;;;;;5096699;28;20038;-65
2021/06/16 05:17:39;;;;;;;7.65;3.45;;;22.10;51.10;;;;;;5106192;28;20132;-65
2021/06/16 05:20:07;;;;;;;6.35;3.75;;;22.10;50.90;;;;;;5105790;28;20047;-65
2021/06/16 05:22:34;;;;;;;9.35;3.78;;;22.20;50.70;;;;;;5107767;28;20527;-65
2021/06/16 05:25:01;;;;;;;5.00;2.95;;;22.30;50.60;;;;;;5094732;28;20077;-65
2021/06/16 05:27:27;;;;;;;5.97;3.05;;;22.30;50.50;;;;;;5113489;28;20024;-65
2021/06/16 05:29:54;;;;;;;8.40;3.33;;;22.40;50.40;;;;;;5117223;28;20085;-65
2021/06/16 05:32:20;;;;;;;8.45;3.38;;;22.50;50.10;;;;;;5113184;28;20043;-65
2021/06/16 05:34:46;;;;;;;4.45;2.85;;;22.50;50.10;;;;;;5104051;28;20024;-65
2021/06/16 05:37:11;;;;;;;5.95;3.22;;;22.60;49.90;;;;;;5104479;28;20562;-65
2021/06/16 05:39:38;;;;;;;5.32;3.22;;;22.70;49.70;;;;;;5096301;28;20027;-65
2021/06/16 05:42:04;;;;;;;7.32;3.28;;;22.70;49.50;;;;;;5095662;28;20019;-65
2021/06/16 05:44:30;;;;;;;4.45;2.50;;;22.80;49.20;;;;;;5103661;28;20063;-65
2021/06/16 05:46:56;;;;;;;10.10;3.30;;;22.90;48.90;;;;;;5105500;28;20059;-65
2021/06/16 05:49:21;;;;;;;7.82;2.95;;;23.00;48.60;;;;;;5115617;28;20103;-65
2021/06/16 05:51:47;;;;;;;8.90;3.45;;;23.10;48.40;;;;;;5096770;28;20032;-64
2021/06/16 05:54:13;;;;;;;7.47;3.72;;;23.10;48.40;;;;;;5110458;28;20019;-65
2021/06/16 05:56:40;;;;;;;9.50;4.35;;;23.20;48.40;;;;;;5093405;28;20497;-65
2021/06/16 05:59:07;;;;;;;8.55;4.15;;;23.20;48.10;;;;;;5095322;28;20458;-66
2021/06/16 06:01:34;;;;;;;10.75;3.15;;;23.30;48.00;;;;;;5097983;28;20023;-65
2021/06/16 06:04:06;;;;;;;7.65;3.97;;;23.40;48.00;;;;;;5103031;28;20077;-65
2021/06/16 06:06:35;;;;;;;10.88;4.20;;;23.50;47.70;;;;;;5095119;28;20055;-65
2021/06/16 06:09:06;;;;;;;14.07;4.00;;;23.50;47.60;;;;;;5098766;28;20020;-65
2021/06/16 06:11:33;;;;;;;10.00;4.28;;;23.60;47.60;;;;;;5095143;28;20016;-65
2021/06/16 06:14:00;;;;;;;8.30;4.32;;;23.70;47.50;;;;;;5095173;28;20099;-65
2021/06/16 06:16:25;;;;;;;24.00;4.38;;;23.80;47.40;;;;;;5094660;28;20024;-65
2021/06/16 06:18:51;;;;;;;9.60;4.40;;;23.90;47.40;;;;;;5095091;28;20020;-65
2021/06/16 06:21:17;;;;;;;13.48;4.70;;;24.00;47.40;;;;;;5095145;28;20374;-65
2021/06/16 06:23:43;;;;;;;8.95;4.90;;;24.10;47.30;;;;;;5111281;27;20437;-65
2021/06/16 06:26:08;;;;;;;9.07;4.72;;;24.10;47.00;;;;;;5094383;27;20024;-65
2021/06/16 06:28:36;;;;;;;11.90;5.75;;;24.20;46.90;;;;;;5094582;28;20495;-65
2021/06/16 06:31:02;;;;;;;12.75;6.53;;;24.30;46.50;;;;;;5094730;28;20023;-65
2021/06/16 06:33:28;;;;;;;10.10;5.47;;;24.30;46.30;;;;;;5094920;28;20063;-65
2021/06/16 06:35:54;;;;;;;16.02;6.25;;;24.40;46.30;;;;;;5102276;28;20102;-66
2021/06/16 06:38:19;;;;;;;11.40;5.85;;;24.50;46.20;;;;;;5091818;28;20036;-65
2021/06/16 06:40:45;;;;;;;11.70;5.95;;;24.60;46.30;;;;;;5094563;28;20016;-65
2021/06/16 06:43:11;;;;;;;13.70;5.15;;;24.70;46.10;;;;;;5106149;28;20110;-65
2021/06/16 06:45:37;;;;;;;12.05;6.20;;;24.80;45.70;;;;;;5114619;28;20427;-65
2021/06/16 06:48:02;;;;;;;15.15;6.50;;;24.80;45.50;;;;;;5101863;28;20477;-65
2021/06/16 06:50:28;;;;;;;11.70;7.00;;;24.90;45.40;;;;;;5096363;28;20044;-65
2021/06/16 06:52:54;;;;;;;16.35;8.15;;;25.00;45.30;;;;;;5114100;28;20031;-66
2021/06/16 06:55:20;;;;;;;10.18;5.93;;;25.00;44.50;;;;;;5114411;28;20038;-65
2021/06/16 06:57:45;;;;;;;13.57;5.53;;;25.10;44.60;;;;;;5113404;28;20039;-65
2021/06/16 07:00:13;;;;;;;15.30;6.90;;;25.20;44.40;;;;;;5095228;27;20020;-65
2021/06/16 07:02:39;;;;;;;11.45;7.75;;;25.30;43.80;;;;;;5096245;28;20024;-65
2021/06/16 07:05:05;;;;;;;16.17;7.63;;;25.40;43.90;;;;;;5098503;28;20024;-66
2021/06/16 07:07:31;;;;;;;13.65;6.65;;;25.50;43.90;;;;;;5105486;28;20028;-66
2021/06/16 07:09:57;;;;;;;17.73;8.20;;;25.50;43.60;;;;;;5093814;28;20034;-66
2021/06/16 07:12:23;;;;;;;16.33;7.65;;;25.60;43.80;;;;;;5093846;28;20485;-66
2021/06/16 07:14:49;;;;;;;17.98;9.25;;;25.70;43.20;;;;;;5094312;28;20550;-66
2021/06/16 07:17:15;;;;;;;17.40;8.73;;;25.80;42.80;;;;;;5095436;28;20059;-67
2021/06/16 07:19:40;;;;;;;15.88;8.77;;;25.80;42.40;;;;;;5098027;28;20030;-66
2021/06/16 07:22:06;;;;;;;13.57;8.23;;;25.90;42.60;;;;;;5111056;28;20024;-65
2021/06/16 07:24:32;;;;;;;16.45;7.22;;;26.00;42.80;;;;;;5113942;28;20028;-65
2021/06/16 07:26:58;;;;;;;18.73;7.68;;;26.10;42.60;;;;;;5100142;27;20040;-65
2021/06/16 07:29:24;;;;;;;11.68;6.80;;;26.10;42.30;;;;;;5093570;28;20486;-64
2021/06/16 07:31:50;;;;;;;5.88;4.20;;;26.30;42.30;;;;;;5091847;28;20038;-65
2021/06/16 07:34:16;;;;;;;10.63;4.07;;;26.30;41.70;;;;;;5110306;28;20067;-65
2021/06/16 07:36:42;;;;;;;8.70;4.38;;;26.40;41.10;;;;;;5110586;28;20067;-66
2021/06/16 07:39:08;;;;;;;8.68;4.60;;;26.50;41.70;;;;;;5106590;28;20059;-65
2021/06/16 07:41:34;;;;;;;6.40;3.55;;;26.50;41.00;;;;;;5113639;28;20077;-65
2021/06/16 07:44:00;;;;;;;5.85;3.33;;;26.70;41.00;;;;;;5113700;28;20019;-65
2021/06/16 07:46:26;;;;;;;8.45;4.10;;;26.70;41.00;;;;;;5113668;28;20024;-65
2021/06/16 07:48:52;;;;;;;6.47;4.13;;;26.70;40.60;;;;;;5112842;28;20417;-65
2021/06/16 07:51:19;;;;;;;8.68;3.85;;;26.80;40.80;;;;;;5099947;28;20089;-65
2021/06/16 07:53:45;;;;;;;7.55;3.80;;;26.90;40.70;;;;;;5101328;27;20023;-65
2021/06/16 07:56:11;;;;;;;10.13;5.18;;;27.00;40.60;;;;;;5104322;28;20024;-65
2021/06/16 07:58:37;;;;;;;10.43;4.13;;;27.00;40.40;;;;;;5093685;28;20027;-66
2021/06/16 08:01:03;;;;;;;10.50;3.30;;;27.10;40.00;;;;;;5092666;28;20093;-66
2021/06/16 08:03:29;;;;;;;7.40;3.05;;;27.20;39.40;;;;;;5092748;28;20032;-66
2021/06/16 08:05:55;;;;;;;9.55;3.30;;;27.30;39.70;;;;;;5092919;28;20035;-66
2021/06/16 08:08:21;;;;;;;12.00;3.60;;;27.30;39.20;;;;;;5092707;28;20503;-66
2021/06/16 08:10:47;;;;;;;10.35;3.60;;;27.40;38.80;;;;;;5112410;28;20034;-66
2021/06/16 08:13:13;;;;;;;8.20;3.65;;;27.50;39.10;;;;;;5113091;28;20027;-67
2021/06/16 08:15:39;;;;;;;4.28;2.83;;;27.50;38.60;;;;;;5113243;28;20576;-64
2021/06/16 08:18:05;;;;;;;7.43;2.50;;;27.60;38.60;;;;;;5098654;28;20397;-65
2021/06/16 08:20:31;;;;;;;3.90;2.50;;;27.70;38.40;;;;;;5104430;28;20459;-65
2021/06/16 08:22:58;;;;;;;7.00;3.40;;;27.70;38.40;;;;;;5113067;28;20095;-65
2021/06/16 08:25:24;;;;;;;4.68;2.85;;;27.80;38.20;;;;;;5099020;28;20028;-65
2021/06/16 08:27:50;;;;;;;3.78;2.72;;;27.90;38.00;;;;;;5092734;28;20089;-65
2021/06/16 08:30:16;;;;;;;9.40;4.85;;;27.90;38.10;;;;;;5092306;28;20028;-65
2021/06/16 08:32:43;;;;;;;5.72;3.63;;;28.00;38.30;;;;;;5092225;28;20024;-65
2021/06/16 08:35:10;;;;;;;4.63;3.58;;;28.00;37.50;;;;;;5092082;28;20028;-65
2021/06/16 08:37:35;;;;;;;6.22;4.07;;;28.10;37.90;;;;;;5091931;28;20118;-65
2021/06/16 08:40:03;;;;;;;5.13;3.50;;;28.20;37.70;;;;;;5092856;28;20103;-65
2021/06/16 08:42:29;;;;;;;7.50;3.03;;;28.20;37.60;;;;;;5090782;28;20024;-64
2021/06/16 08:44:56;;;;;;;5.60;3.20;;;28.30;36.90;;;;;;5092145;28;20016;-64
2021/06/16 08:47:23;;;;;;;6.25;3.30;;;28.40;37.20;;;;;;5092428;28;20077;-65
2021/06/16 08:49:49;;;;;;;4.72;2.97;;;28.40;37.10;;;;;;5092667;28;20143;-64
2021/06/16 08:52:15;;;;;;;6.32;3.33;;;28.50;36.70;;;;;;5092677;28;20173;-66
2021/06/16 08:54:41;;;;;;;5.25;2.72;;;28.60;36.70;;;;;;5096929;28;20512;-66
2021/06/16 08:57:07;;;;;;;5.10;3.47;;;28.60;34.90;;;;;;5092903;28;20032;-66
2021/06/16 08:59:34;;;;;;;5.32;3.00;;;28.60;35.60;;;;;;5103745;28;20024;-66
2021/06/16 09:02:00;;;;;;;10.07;3.40;;;28.70;35.70;;;;;;5112427;28;20113;-66
2021/06/16 09:04:49;;;;;;;5.88;3.15;;;28.70;34.90;;;;;;5104305;28;20092;-65
2021/06/16 09:07:21;;;;;;;3.45;2.35;;;28.80;34.90;;;;;;5100600;28;20031;-65
2021/06/16 09:09:49;;;;;;;5.82;3.42;;;28.80;35.00;;;;;;5092752;28;20024;-65
2021/06/16 09:12:29;;;;;;;5.07;3.53;;;28.90;33.50;;;;;;5092551;28;20039;-66
2021/06/16 09:14:56;;;;;;;4.85;3.00;;;29.00;34.30;;;;;;5091420;28;20024;-66
2021/06/16 09:17:24;;;;;;;6.68;2.63;;;29.00;34.60;;;;;;5090550;28;20073;-65
2021/06/16 09:19:57;;;;;;;5.70;3.47;;;29.10;34.00;;;;;;5108306;28;20373;-67
2021/06/16 09:22:32;;;;;;;5.95;2.83;;;29.20;33.90;;;;;;5103736;28;20016;-66
2021/06/16 09:25:00;;;;;;;6.68;3.65;;;29.20;33.60;;;;;;5094094;28;20028;-65
2021/06/16 09:27:43;;;;;;;5.32;2.80;;;29.30;33.60;;;;;;5112677;28;20092;-65
2021/06/16 09:30:24;;;;;;;4.10;2.65;;;29.40;32.90;;;;;;5113203;28;20016;-66
2021/06/16 09:32:58;;;;;;;10.73;3.03;;;29.40;32.90;;;;;;5098970;28;20493;-65
2021/06/16 09:35:27;;;;;;;3.58;2.20;;;29.50;32.00;;;;;;5099224;28;20024;-65
2021/06/16 09:37:53;;;;;;;3.72;2.25;;;29.60;30.50;;;;;;5111640;28;20031;-66
2021/06/16 09:40:31;;;;;;;7.85;2.88;;;29.60;30.90;;;;;;5112931;28;20048;-66
2021/06/16 09:43:00;;;;;;;6.18;3.00;;;29.60;31.90;;;;;;5113175;28;20028;-66
2021/06/16 09:45:27;;;;;;;5.38;3.05;;;29.70;31.60;;;;;;5111545;28;20397;-66
2021/06/16 09:47:53;;;;;;;4.55;2.65;;;29.80;31.70;;;;;;5112906;28;20164;-65
2021/06/16 09:50:23;;;;;;;5.60;2.75;;;29.80;31.50;;;;;;5112753;28;20123;-66
2021/06/16 09:52:50;;;;;;;5.70;3.00;;;29.90;31.50;;;;;;5111083;28;20088;-66
2021/06/16 09:55:27;;;;;;;5.90;3.08;;;30.00;31.60;;;;;;5092389;28;20023;-66
2021/06/16 09:58:09;;;;;;;4.78;3.10;;;30.00;30.80;;;;;;5099227;28;20063;-66
2021/06/16 10:00:42;;;;;;;5.88;2.72;;;30.10;30.90;;;;;;5108056;28;20016;-65
2021/06/16 10:03:09;;;;;;;6.90;2.92;;;30.20;30.50;;;;;;5095933;28;20016;-65
2021/06/16 10:05:55;;;;;;;4.43;2.58;;;30.20;30.80;;;;;;5097823;28;20024;-66
2021/06/16 10:08:24;;;;;;;4.00;2.58;;;30.30;30.90;;;;;;5112418;28;20433;-66
2021/06/16 10:10:51;;;;;;;9.18;3.75;;;30.30;30.50;;;;;;5104165;28;20446;-66
2021/06/16 10:13:27;;;;;;;3.97;3.25;;;30.40;29.40;;;;;;5093624;28;20055;-65
2021/06/16 10:16:00;;;;;;;4.57;2.30;;;30.40;29.70;;;;;;5096351;28;20020;-65
2021/06/16 10:18:27;;;;;;;8.05;2.50;;;30.50;29.40;;;;;;5096001;28;20055;-65
2021/06/16 10:20:55;;;;;;;5.22;2.70;;;30.50;29.30;;;;;;5095871;28;20016;-65
2021/06/16 10:23:21;;;;;;;8.45;2.90;;;30.60;29.70;;;;;;5113670;28;20030;-65
2021/06/16 10:25:48;;;;;;;4.97;2.85;;;30.60;29.60;;;;;;5103164;27;20027;-65
2021/06/16 10:28:21;;;;;;;5.38;2.83;;;30.70;29.70;;;;;;5116531;28;20063;-65
2021/06/16 10:30:53;;;;;;;4.00;2.72;;;30.70;29.60;;;;;;5116120;28;20023;-65
2021/06/16 10:33:29;;;;;;;5.25;2.95;;;30.80;29.80;;;;;;5116055;28;20027;-65
2021/06/16 10:36:21;;;;;;;7.30;3.38;;;30.80;30.00;;;;;;5115848;28;20024;-65
2021/06/16 10:38:56;;;;;;;4.82;2.25;;;30.90;30.00;;;;;;5112087;28;20374;-65
2021/06/16 10:41:37;;;;;;;6.55;3.85;;;30.90;30.00;;;;;;5115946;28;20016;-64
2021/06/16 10:44:24;;;;;;;5.78;3.30;;;31.00;29.90;;;;;;5114614;28;20047;-65
2021/06/16 10:47:08;;;;;;;6.68;2.67;;;31.00;29.90;;;;;;5116014;28;20020;-65
2021/06/16 10:49:43;;;;;;;4.28;2.35;;;31.10;29.30;;;;;;5115872;28;20081;-64
2021/06/16 10:52:11;;;;;;;4.57;2.58;;;31.00;29.20;;;;;;5115494;28;20089;-65
2021/06/16 10:54:38;;;;;;;7.53;2.42;;;31.10;29.60;;;;;;5109768;28;20469;-65
2021/06/16 10:57:05;;;;;;;4.00;2.50;;;31.10;29.10;;;;;;5094948;28;20097;-65
2021/06/16 10:59:43;;;;;;;4.68;2.78;;;31.10;29.40;;;;;;5093897;28;20103;-65
2021/06/16 11:02:17;;;;;;;5.28;2.50;;;31.20;29.50;;;;;;5095198;28;20016;-64
2021/06/16 11:04:44;;;;;;;4.15;2.83;;;31.30;29.30;;;;;;5095116;28;20070;-65
2021/06/16 11:07:42;;;;;;;7.45;3.22;;;31.30;29.30;;;;;;5094991;28;20431;-65
2021/06/16 11:10:08;;;;;;;3.28;2.13;;;31.40;29.30;;;;;;5032708;28;20554;-65
2021/06/16 11:12:38;;;;;;;4.00;2.35;;;31.50;28.70;;;;;;5032569;28;20029;-65
2021/06/16 11:15:08;;;;;;;4.30;2.45;;;31.50;28.10;;;;;;5034133;28;20026;-66
2021/06/16 11:17:34;;;;;;;9.93;2.80;;;31.50;27.80;;;;;;5052525;28;20041;-66
2021/06/16 11:20:06;;;;;;;3.75;2.15;;;31.50;28.10;;;;;;5052452;28;20021;-64
2021/06/16 11:22:36;;;;;;;4.80;2.42;;;31.60;28.50;;;;;;5052404;28;20029;-66
2021/06/16 11:25:18;;;;;;;3.15;2.20;;;31.60;28.50;;;;;;5042893;28;20443;-66
2021/06/16 11:27:50;;;;;;;4.78;2.05;;;31.70;27.80;;;;;;5032452;28;20030;-66
2021/06/16 11:30:37;;;;;;;8.50;3.03;;;31.70;28.00;;;;;;5032160;28;20111;-66
2021/06/16 11:33:20;;;;;;;5.25;2.40;;;31.70;28.00;;;;;;5037579;28;20037;-66
2021/06/16 11:35:52;;;;;;;11.45;2.65;;;31.80;28.10;;;;;;5051897;28;20033;-66
2021/06/16 11:38:18;;;;;;;4.15;2.50;;;31.80;28.10;;;;;;5051801;28;20585;-66
2021/06/16 11:40:54;;;;;;;5.88;2.53;;;31.80;28.10;;;;;;5051994;28;20120;-66
2021/06/16 11:43:30;;;;;;;4.70;2.60;;;31.90;28.50;;;;;;5051877;28;20032;-67
2021/06/16 11:45:56;;;;;;;5.72;3.25;;;32.00;27.60;;;;;;5076804;28;20402;-66
2021/06/16 11:48:21;;;;;;;5.65;2.10;;;32.00;28.00;;;;;;5094236;28;20031;-67
2021/06/16 11:50:48;;;;;;;7.63;2.75;;;32.00;27.30;;;;;;5093966;28;20178;-66
2021/06/16 11:53:31;;;;;;;4.22;2.33;;;32.00;26.50;;;;;;5093865;28;20075;-66
2021/06/16 11:56:04;;;;;;;3.70;2.47;;;32.10;26.80;;;;;;5094362;28;20101;-66
2021/06/16 11:58:36;;;;;;;3.50;2.78;;;32.10;27.20;;;;;;5092742;28;20032;-66
2021/06/16 12:01:16;;;;;;;4.82;2.90;;;32.20;27.40;;;;;;5093864;28;20032;-67
2021/06/16 12:03:59;;;;;;;5.43;2.47;;;32.20;27.40;;;;;;5093808;28;20036;-66
2021/06/16 12:06:25;;;;;;;5.70;2.30;;;32.30;27.60;;;;;;5093788;28;20016;-66
2021/06/16 12:08:58;;;;;;;3.10;2.40;;;32.30;27.00;;;;;;5093747;28;20036;-66
2021/06/16 12:11:33;;;;;;;8.68;2.22;;;32.40;27.20;;;;;;5093708;28;20027;-66
2021/06/16 12:14:06;;;;;;;3.40;2.35;;;32.50;27.20;;;;;;5098002;28;20028;-66
2021/06/16 12:16:33;;;;;;;;;;;32.60;27.00;;;;;;5114325;28;20498;-67
2021/06/16 12:19:15;;;;;;;2.88;2.13;;;32.60;27.40;;;;;;5113834;28;19947;-66
2021/06/16 12:21:55;;;;;;;5.55;2.22;;;32.60;26.70;;;;;;5113730;27;20430;-66
2021/06/16 12:24:39;;;;;;;4.10;2.50;;;32.60;26.50;;;;;;5110911;28;20076;-66
2021/06/16 12:27:16;;;;;;;3.00;2.10;;;32.70;26.60;;;;;;5113692;28;20027;-67
2021/06/16 12:29:51;;;;;;;3.90;2.10;;;32.70;26.00;;;;;;5113500;27;20527;-66
2021/06/16 12:32:52;;;;;;;2.72;2.33;;;32.70;26.00;;;;;;5113685;28;20517;-67
2021/06/16 12:37:50;;;;;;;4.60;2.28;;;32.80;25.80;;;;;;5113794;28;20028;-66
2021/06/16 12:40:17;;;;;;;2.63;2.30;;;32.80;25.60;;;;;;5113510;28;20020;-66
2021/06/16 12:42:45;;;;;;;1.98;1.70;;;32.80;25.70;;;;;;5112305;28;20476;-66
2021/06/16 12:45:33;;;;;;;6.43;2.78;;;32.80;24.60;;;;;;5113173;28;20026;-66
2021/06/16 12:48:23;;;;;;;3.35;1.88;;;32.90;25.40;;;;;;5113369;28;20027;-66
2021/06/16 12:51:03;;;;;;;8.73;2.55;;;32.90;25.20;;;;;;5099705;28;20124;-66
2021/06/16 12:53:35;;;;;;;3.83;2.13;;;33.00;25.50;;;;;;5113345;28;20098;-66
2021/06/16 12:56:02;;;;;;;4.10;1.92;;;33.00;24.40;;;;;;5097132;28;20035;-66
2021/06/16 12:58:29;;;;;;;3.63;2.00;;;33.10;24.70;;;;;;5092712;28;20393;-66